Time;durP1;ratioP1;P1;durP2;ratioP2;P2;SDS_P1;SDS_P2;PMS_P1;PMS_P2;Temp;Humidity;BMP_temperature;BMP_pressure;BME280_temperature;BME280_humidity;BME280_pressure;Samples;Min_cycle;Max_cycle;Signal;HPM_P1;HPM_P2
2021/01/26 00:00:58;;;;;;;6.17;4.47;;;;;;;12.84;57.45;97222.17;1843796;77;21134;-68
2021/01/26 00:03:25;;;;;;;6.10;4.08;;;;;;;12.82;57.46;97233.59;1799565;79;21202;-68
2021/01/26 00:05:53;;;;;;;5.47;4.17;;;;;;;12.81;57.47;97228.00;1825472;77;21172;-68
2021/01/26 00:08:20;;;;;;;6.42;4.53;;;;;;;12.78;57.50;97216.75;1824997;78;21118;-67
2021/01/26 00:10:49;;;;;;;5.65;4.80;;;;;;;12.78;57.53;97202.10;1806517;78;21203;-68
2021/01/26 00:13:17;;;;;;;5.92;4.47;;;;;;;12.77;57.52;97209.03;1809139;78;21155;-66
2021/01/26 00:15:46;;;;;;;5.30;4.22;;;;;;;12.76;57.53;97214.06;1807736;78;21198;-67
2021/01/26 00:18:14;;;;;;;5.67;4.55;;;;;;;12.75;57.56;97219.13;1814861;78;21616;-67
2021/01/26 00:20:42;;;;;;;5.05;3.67;;;;;;;12.73;57.57;97214.03;1811278;78;21586;-68
2021/01/26 00:23:10;;;;;;;5.05;4.10;;;;;;;12.73;57.59;97207.38;1818687;78;21162;-66
2021/01/26 00:25:39;;;;;;;5.15;4.33;;;;;;;12.72;57.58;97195.09;1812412;78;21103;-66
2021/01/26 00:28:08;;;;;;;7.62;4.95;;;;;;;12.72;57.62;97199.09;1817653;78;21433;-66
2021/01/26 00:30:38;;;;;;;6.83;4.62;;;;;;;12.71;57.63;97199.33;1807474;78;21218;-66
2021/01/26 00:33:13;;;;;;;6.92;4.58;;;;;;;12.68;57.67;97201.16;1838224;77;21119;-66
2021/01/26 00:35:41;;;;;;;6.92;4.10;;;;;;;12.75;57.58;97194.62;1789021;79;21166;-67
2021/01/26 00:38:09;;;;;;;5.75;4.22;;;;;;;12.87;57.32;97193.72;1827307;78;21108;-65
2021/01/26 00:40:38;;;;;;;7.22;4.25;;;;;;;12.84;57.33;97188.87;1813385;78;21251;-67
2021/01/26 00:43:08;;;;;;;5.62;4.28;;;;;;;12.81;57.37;97188.04;1816392;78;21412;-68
2021/01/26 00:45:37;;;;;;;4.65;3.75;;;;;;;12.76;57.41;97183.43;1824245;78;21212;-67
2021/01/26 00:48:06;;;;;;;7.20;4.58;;;;;;;12.77;57.41;97177.86;1815759;78;21167;-67
2021/01/26 00:50:34;;;;;;;5.50;3.77;;;;;;;12.75;57.45;97185.30;1827208;78;21178;-67
2021/01/26 00:53:03;;;;;;;5.55;4.25;;;;;;;12.73;57.47;97168.75;1817148;77;21544;-67
2021/01/26 00:55:40;;;;;;;4.78;4.08;;;;;;;12.76;57.47;97170.91;1824418;77;28268;-66
2021/01/26 00:58:10;;;;;;;5.33;3.80;;;;;;;12.71;57.48;97161.53;1784574;79;21127;-67
2021/01/26 01:00:39;;;;;;;5.72;4.62;;;;;;;12.70;57.51;97165.23;1821037;78;21340;-67
2021/01/26 01:03:08;;;;;;;4.33;3.70;;;;;;;12.69;57.52;97162.80;1816396;78;21847;-66
2021/01/26 01:05:36;;;;;;;5.75;4.33;;;;;;;12.68;57.52;97168.67;1822318;78;21139;-66
2021/01/26 01:08:04;;;;;;;4.85;4.25;;;;;;;12.68;57.55;97179.86;1812900;78;21155;-67
2021/01/26 01:10:36;;;;;;;4.83;3.87;;;;;;;12.66;57.60;97177.96;1805070;77;21162;-67
2021/01/26 01:13:06;;;;;;;5.45;4.10;;;;;;;12.65;57.61;97185.66;1803600;78;21432;-67
2021/01/26 01:15:33;;;;;;;6.05;3.72;;;;;;;12.63;57.62;97182.44;1817803;78;21143;-66
2021/01/26 01:18:01;;;;;;;5.20;4.30;;;;;;;12.71;57.56;97199.33;1789190;79;21145;-68
2021/01/26 01:20:29;;;;;;;6.03;3.83;;;;;;;12.82;57.31;97224.27;1801929;78;21145;-67
2021/01/26 01:22:57;;;;;;;5.30;3.72;;;;;;;12.78;57.30;97219.42;1791723;79;21114;-67
2021/01/26 01:25:26;;;;;;;5.28;3.98;;;;;;;12.76;57.34;97226.05;1802257;78;21189;-67
2021/01/26 01:27:54;;;;;;;5.22;3.95;;;;;;;12.73;57.36;97217.23;1794755;77;21169;-69
2021/01/26 01:30:24;;;;;;;5.28;3.80;;;;;;;12.71;57.36;97228.13;1802524;77;21142;-68
2021/01/26 01:32:51;;;;;;;5.20;3.83;;;;;;;12.69;57.37;97236.06;1789216;79;21118;-68
2021/01/26 01:35:19;;;;;;;4.78;3.40;;;;;;;12.68;57.37;97243.25;1805808;77;21165;-67
2021/01/26 01:37:48;;;;;;;5.40;4.08;;;;;;;12.65;57.39;97253.58;1788658;78;21570;-66
2021/01/26 01:40:28;;;;;;;4.97;3.67;;;;;;;12.62;57.36;97262.87;1795388;78;21178;-68
2021/01/26 01:42:55;;;;;;;4.85;3.83;;;;;;;12.61;57.36;97250.58;1793689;78;21122;-68
2021/01/26 01:45:24;;;;;;;3.90;3.27;;;;;;;12.58;57.37;97259.08;1793810;77;21153;-67
2021/01/26 01:48:15;;;;;;;3.87;2.92;;;;;;;12.55;57.36;97272.33;1794702;79;21166;-67
2021/01/26 01:51:06;;;;;;;4.83;3.37;;;;;;;12.52;57.37;97267.50;1798375;79;22256;-66
2021/01/26 01:53:56;;;;;;;3.92;3.30;;;;;;;12.48;57.38;97276.23;1789155;78;21209;-67
2021/01/26 01:56:35;;;;;;;4.67;2.90;;;;;;;12.42;57.44;97287.31;1811541;78;21186;-68
2021/01/26 01:59:10;;;;;;;3.17;2.77;;;;;;;12.37;57.52;97306.65;1791032;77;21446;-68
2021/01/26 02:01:38;;;;;;;3.87;3.20;;;;;;;12.34;57.52;97311.14;1791360;78;21134;-67
2021/01/26 02:04:14;;;;;;;3.85;2.72;;;;;;;12.32;57.53;97337.69;1792152;79;21372;-67
2021/01/26 02:06:42;;;;;;;3.70;2.72;;;;;;;12.38;57.43;97335.41;1802164;79;21157;-68
2021/01/26 02:09:17;;;;;;;3.83;2.90;;;;;;;12.46;57.22;97334.21;1788423;79;21108;-67
2021/01/26 02:11:46;;;;;;;3.42;2.70;;;;;;;12.41;57.23;97339.47;1798815;79;21150;-68
2021/01/26 02:14:14;;;;;;;3.45;2.90;;;;;;;12.36;57.28;97346.81;1808192;79;21173;-67
2021/01/26 02:16:59;;;;;;;3.47;3.00;;;;;;;12.31;57.32;97354.20;1789582;79;21440;-66
2021/01/26 02:19:58;;;;;;;4.62;2.72;;;;;;;12.28;57.34;97359.19;1777910;79;21694;-66
2021/01/26 02:23:05;;;;;;;3.52;2.62;;;;;;;12.23;57.36;97381.20;1786097;77;21166;-66
2021/01/26 02:25:37;;;;;;;3.15;2.72;;;;;;;12.16;57.37;97361.36;1792000;79;21141;-65
2021/01/26 02:28:30;;;;;;;3.35;2.70;;;;;;;12.09;57.44;97372.68;1786505;79;21144;-67
2021/01/26 02:31:29;;;;;;;2.62;2.42;;;;;;;12.06;57.48;97397.62;1797562;79;22561;-66
2021/01/26 02:34:45;;;;;;;4.25;2.70;;;;;;;12.00;57.54;97393.52;1785904;79;21170;-67
2021/01/26 02:37:57;;;;;;;3.47;2.50;;;;;;;11.95;57.56;97384.61;1799508;79;21193;-67
2021/01/26 02:40:48;;;;;;;2.75;2.45;;;;;;;11.87;57.61;97411.03;1789847;77;21162;-66
2021/01/26 02:43:33;;;;;;;3.90;2.47;;;;;;;11.81;57.71;97416.75;1802186;79;21606;-67
2021/01/26 02:46:38;;;;;;;3.22;2.35;;;;;;;11.76;57.78;97426.47;1761778;79;22168;-68
2021/01/26 02:49:30;;;;;;;2.75;2.10;;;;;;;11.73;57.77;97441.58;1745399;79;21633;-68
2021/01/26 02:52:08;;;;;;;2.65;2.10;;;;;;;11.69;57.84;97446.55;1788177;79;21175;-67
2021/01/26 02:55:03;;;;;;;2.58;2.37;;;;;;;11.64;57.86;97442.44;1798244;77;21183;-67
2021/01/26 02:57:57;;;;;;;2.62;2.08;;;;;;;11.61;57.90;97441.05;1780869;80;21610;-67
2021/01/26 03:00:28;;;;;;;2.52;1.95;;;;;;;11.72;57.72;97438.62;1764921;79;21195;-67
2021/01/26 03:03:05;;;;;;;2.98;2.20;;;;;;;11.75;57.50;97440.30;1817156;78;21145;-67
2021/01/26 03:05:48;;;;;;;2.37;1.80;;;;;;;11.70;57.55;97486.72;1815300;78;21127;-69
2021/01/26 03:08:21;;;;;;;1.82;1.67;;;;;;;11.67;57.56;97459.27;1793215;79;21110;-67
2021/01/26 03:11:18;;;;;;;2.52;2.12;;;;;;;11.64;57.57;97486.84;1783445;79;21185;-67
2021/01/26 03:13:51;;;;;;;2.83;2.30;;;;;;;11.60;57.59;97470.00;1797412;79;22695;-66
2021/01/26 03:16:20;;;;;;;2.90;2.25;;;;;;;11.57;57.58;97461.67;1804141;78;21208;-67
2021/01/26 03:18:52;;;;;;;2.83;2.05;;;;;;;11.54;57.58;97444.34;1808644;78;21155;-66
2021/01/26 03:21:20;;;;;;;2.45;2.22;;;;;;;11.53;57.60;97470.66;1789487;77;21147;-67
2021/01/26 03:24:00;;;;;;;3.37;2.35;;;;;;;11.52;57.53;97457.58;1802910;78;21178;-70
2021/01/26 03:26:27;;;;;;;3.08;2.30;;;;;;;11.50;57.50;97466.31;1806356;77;22269;-67
2021/01/26 03:28:57;;;;;;;2.60;2.33;;;;;;;11.49;57.51;97475.31;1802565;78;21198;-66
2021/01/26 03:31:49;;;;;;;2.72;2.52;;;;;;;11.47;57.51;97471.55;1821925;78;21199;-66
2021/01/26 03:34:16;;;;;;;2.62;2.33;;;;;;;11.46;57.49;97480.58;1801387;78;21627;-68
2021/01/26 03:36:44;;;;;;;3.00;2.47;;;;;;;11.44;57.46;97495.15;1824811;78;21199;-68
2021/01/26 03:39:11;;;;;;;3.20;2.40;;;;;;;11.41;57.50;97499.05;1822132;78;21219;-67
2021/01/26 03:41:39;;;;;;;2.85;2.42;;;;;;;11.40;57.48;97514.20;1799902;78;21131;-67
2021/01/26 03:44:10;;;;;;;3.72;2.77;;;;;;;11.39;57.48;97520.55;1802560;78;21439;-67
2021/01/26 03:47:08;;;;;;;3.67;3.05;;;;;;;11.30;57.46;97490.53;1819147;78;21142;-67
2021/01/26 03:50:04;;;;;;;3.60;2.92;;;;;;;11.37;57.46;97513.84;1804189;78;21134;-69
2021/01/26 03:53:08;;;;;;;2.80;2.40;;;;;;;11.34;57.47;97501.83;1792932;79;21334;-69
2021/01/26 03:56:11;;;;;;;3.47;2.80;;;;;;;11.30;57.48;97516.61;1797749;78;21109;-71
2021/01/26 03:59:13;;;;;;;4.30;3.10;;;;;;;11.27;57.52;97528.22;1775973;80;21595;-67
2021/01/26 04:01:43;;;;;;;3.27;2.98;;;;;;;11.23;57.55;97531.03;1780162;79;21154;-68
2021/01/26 04:04:20;;;;;;;3.40;2.83;;;;;;;11.18;57.59;97517.91;1761918;79;21153;-68
2021/01/26 04:06:52;;;;;;;3.17;2.85;;;;;;;11.17;57.60;97520.27;1811798;77;21574;-68
2021/01/26 04:09:23;;;;;;;3.17;2.80;;;;;;;11.17;57.62;97526.10;1798198;77;21870;-68
2021/01/26 04:12:13;;;;;;;3.90;3.00;;;;;;;11.25;57.49;97533.75;1788234;78;21177;-68
2021/01/26 04:14:58;;;;;;;3.45;2.92;;;;;;;11.37;57.23;97540.42;1815300;78;21146;-69
2021/01/26 04:17:29;;;;;;;3.50;3.02;;;;;;;11.32;57.21;97544.27;1819650;78;21197;-69
2021/01/26 04:20:02;;;;;;;3.77;3.05;;;;;;;11.28;57.24;97550.59;1750724;79;21324;-69
2021/01/26 04:22:29;;;;;;;4.12;3.37;;;;;;;11.26;57.25;97538.54;1794713;79;21127;-69
2021/01/26 04:24:57;;;;;;;3.98;3.33;;;;;;;11.25;57.22;97540.39;1789181;78;21163;-68
2021/01/26 04:27:25;;;;;;;4.85;3.60;;;;;;;11.24;57.19;97545.93;1810648;77;21157;-69
2021/01/26 04:29:52;;;;;;;4.35;3.67;;;;;;;11.24;57.20;97571.17;1772372;78;21152;-70
2021/01/26 04:32:22;;;;;;;4.10;3.65;;;;;;;11.22;57.18;97583.36;1800622;77;21227;-70
2021/01/26 04:34:50;;;;;;;4.58;3.90;;;;;;;11.21;57.17;97575.91;1779113;78;21178;-69
2021/01/26 04:37:18;;;;;;;4.60;4.03;;;;;;;11.20;57.14;97561.52;1805540;77;21337;-71
2021/01/26 04:39:45;;;;;;;4.30;3.90;;;;;;;11.19;57.12;97579.31;1773723;78;21105;-69
2021/01/26 04:42:21;;;;;;;5.08;4.40;;;;;;;11.18;57.09;97569.73;1788849;78;21176;-69
2021/01/26 04:45:03;;;;;;;5.53;4.17;;;;;;;11.17;57.09;97592.02;1809543;78;21420;-70
2021/01/26 04:47:50;;;;;;;4.92;4.08;;;;;;;11.20;57.09;97575.63;1848302;75;28186;-69
2021/01/26 04:50:42;;;;;;;4.72;3.87;;;;;;;11.14;57.08;97596.44;1808100;78;20948;-68
2021/01/26 04:53:27;;;;;;;4.72;4.22;;;;;;;11.12;57.07;97591.06;1808182;77;21560;-69
2021/01/26 04:56:20;;;;;;;6.00;4.47;;;;;;;11.10;57.11;97596.59;1811705;78;20986;-68
2021/01/26 04:59:20;;;;;;;5.47;4.90;;;;;;;11.08;57.10;97600.52;1828121;78;21148;-70
2021/01/26 05:02:14;;;;;;;4.95;4.45;;;;;;;11.05;57.10;97627.52;1843212;77;21170;-70
2021/01/26 05:04:46;;;;;;;;;;;;;;;11.02;57.12;97603.02;1845004;77;21141;-68
2021/01/26 05:07:22;;;;;;;5.67;5.00;;;;;;;11.00;57.11;97616.25;1817306;78;21353;-69
2021/01/26 05:10:10;;;;;;;5.67;4.22;;;;;;;10.89;57.25;97611.15;1825119;78;21727;-69
2021/01/26 05:12:48;;;;;;;5.90;4.67;;;;;;;10.90;57.26;97615.97;1818599;78;21561;-68
2021/01/26 05:15:21;;;;;;;6.25;4.78;;;;;;;10.90;57.22;97632.71;1825401;78;21121;-69
2021/01/26 05:17:53;;;;;;;5.20;4.70;;;;;;;10.89;57.25;97635.58;1817570;78;21142;-70
2021/01/26 05:20:25;;;;;;;6.60;4.60;;;;;;;10.89;57.23;97661.63;1830927;77;22266;-70
2021/01/26 05:23:07;;;;;;;6.28;4.90;;;;;;;10.87;57.19;97642.44;1826085;77;21188;-70
2021/01/26 05:25:34;;;;;;;5.70;4.90;;;;;;;10.88;57.17;97652.57;1823715;78;21216;-70
2021/01/26 05:28:02;;;;;;;5.30;4.80;;;;;;;10.88;57.15;97661.87;1857213;77;22029;-70
2021/01/26 05:33:12;;;;;;;5.20;4.70;;;;;;;10.92;57.02;97671.81;1809433;77;28216;-70
2021/01/26 05:35:45;;;;;;;5.45;4.92;;;;;;;10.89;56.97;97682.06;1802886;78;21159;-69
2021/01/26 05:38:12;;;;;;;5.60;5.00;;;;;;;10.89;56.95;97718.73;1823712;77;21246;-69
2021/01/26 05:40:41;;;;;;;5.80;5.20;;;;;;;10.87;56.91;97683.61;1823858;78;21634;-69
2021/01/26 05:43:12;;;;;;;5.65;4.78;;;;;;;10.88;56.88;97693.74;1847269;77;21587;-69
2021/01/26 05:45:43;;;;;;;5.87;5.28;;;;;;;10.88;56.83;97710.48;1823772;78;21111;-71
2021/01/26 05:48:14;;;;;;;5.83;4.62;;;;;;;10.88;56.80;97699.05;1815089;78;21609;-69
2021/01/26 05:50:44;;;;;;;5.05;4.55;;;;;;;10.87;56.77;97713.36;1816188;78;21183;-71
2021/01/26 05:53:27;;;;;;;5.60;4.78;;;;;;;10.87;56.75;97714.68;1835954;78;22197;-70
2021/01/26 05:56:10;;;;;;;5.10;4.60;;;;;;;10.86;56.70;97693.16;1835831;78;21106;-69
2021/01/26 05:58:39;;;;;;;5.05;4.55;;;;;;;10.86;56.66;97689.16;1836005;77;21479;-69
2021/01/26 06:01:14;;;;;;;5.17;4.67;;;;;;;10.85;56.67;97698.16;1835729;78;21112;-70
2021/01/26 06:03:42;;;;;;;5.55;4.78;;;;;;;10.85;56.64;97730.03;1811783;78;21359;-70
2021/01/26 06:06:16;;;;;;;5.28;4.58;;;;;;;10.80;56.61;97685.02;1817419;76;21093;-69
2021/01/26 06:08:54;;;;;;;7.12;4.95;;;;;;;10.85;56.55;97707.45;1833643;78;21505;-70
2021/01/26 06:11:29;;;;;;;5.87;4.85;;;;;;;10.84;56.50;97706.64;1818164;78;21175;-70
2021/01/26 06:14:14;;;;;;;5.10;4.53;;;;;;;10.83;56.49;97734.22;1802214;77;21598;-69
2021/01/26 06:16:42;;;;;;;5.35;4.58;;;;;;;10.84;56.45;97729.22;1806048;78;21602;-71
2021/01/26 06:19:12;;;;;;;5.40;4.53;;;;;;;10.82;56.42;97748.03;1829161;78;21064;-70
2021/01/26 06:21:48;;;;;;;4.78;4.22;;;;;;;10.82;56.39;97761.31;1771400;79;21145;-70
2021/01/26 06:24:17;;;;;;;6.62;4.58;;;;;;;10.82;56.32;97734.75;1826261;77;22186;-70
2021/01/26 06:27:02;;;;;;;5.22;4.45;;;;;;;10.82;56.27;97745.90;1828191;76;21151;-70
2021/01/26 06:29:37;;;;;;;5.62;4.28;;;;;;;10.81;56.26;97762.33;1828957;77;21601;-70
2021/01/26 06:32:33;;;;;;;5.08;4.10;;;;;;;10.81;56.24;97759.67;1823745;78;21158;-71
2021/01/26 06:35:38;;;;;;;5.15;4.12;;;;;;;10.81;56.19;97768.16;1808585;78;21591;-70
2021/01/26 06:38:20;;;;;;;5.58;4.55;;;;;;;10.80;56.11;97765.23;1843610;77;21134;-69
2021/01/26 06:40:53;;;;;;;5.83;4.83;;;;;;;10.77;56.11;97778.41;1845728;77;21567;-71
2021/01/26 06:43:54;;;;;;;5.15;4.20;;;;;;;10.81;56.44;97786.75;1836031;77;28757;-69
2021/01/26 06:46:57;;;;;;;5.80;4.70;;;;;;;10.78;56.55;97787.20;1823601;77;21189;-69
2021/01/26 06:49:48;;;;;;;6.15;4.90;;;;;;;10.76;56.55;97790.59;1835748;77;21839;-68
2021/01/26 06:52:31;;;;;;;4.90;4.37;;;;;;;10.75;56.53;97803.04;1816599;78;21540;-69
2021/01/26 06:55:25;;;;;;;4.60;4.10;;;;;;;10.75;56.53;97838.09;1823121;76;21126;-70
2021/01/26 06:58:10;;;;;;;5.53;4.50;;;;;;;10.73;56.51;97706.03;1816714;78;21632;-72
2021/01/26 07:01:01;;;;;;;5.35;4.62;;;;;;;10.74;56.92;97762.92;1822969;78;21153;-72
2021/01/26 07:04:21;;;;;;;5.08;4.20;;;;;;;10.78;57.47;97761.45;1823795;77;21254;-72
2021/01/26 07:07:18;;;;;;;5.22;4.42;;;;;;;10.97;57.74;97748.19;1818651;77;21151;-72
2021/01/26 07:10:11;;;;;;;5.67;4.40;;;;;;;11.12;57.66;97775.22;1819050;78;21146;-70
2021/01/26 07:13:10;;;;;;;7.00;4.60;;;;;;;11.14;58.00;97777.14;1818795;77;21125;-70
2021/01/26 07:15:58;;;;;;;10.72;5.08;;;;;;;11.17;57.97;97763.42;1817004;78;21143;-70
2021/01/26 07:19:03;;;;;;;6.03;4.10;;;;;;;11.20;57.74;97755.52;1814756;78;21371;-70
2021/01/26 07:22:20;;;;;;;5.65;4.70;;;;;;;11.25;57.48;97773.48;1807059;78;21135;-72
2021/01/26 07:25:19;;;;;;;8.45;5.30;;;;;;;11.29;57.31;97780.78;1815667;78;21172;-73
2021/01/26 07:28:28;;;;;;;7.15;4.55;;;;;;;11.32;57.21;97794.14;1819043;77;21134;-70
2021/01/26 07:31:06;;;;;;;10.05;5.42;;;;;;;11.36;57.26;97791.37;1801983;78;21173;-74
2021/01/26 07:33:57;;;;;;;6.08;4.87;;;;;;;11.39;57.43;97790.91;1824716;78;21383;-74
2021/01/26 07:36:36;;;;;;;8.90;5.10;;;;;;;11.43;57.62;97790.76;1824753;78;21543;-73
2021/01/26 07:39:37;;;;;;;6.67;4.47;;;;;;;11.47;57.69;97815.06;1819696;78;21163;-73
2021/01/26 07:42:31;;;;;;;6.15;4.70;;;;;;;11.50;57.69;97772.09;1803539;77;21176;-74
2021/01/26 07:45:13;;;;;;;7.90;4.83;;;;;;;11.52;57.59;97796.08;1819381;78;21142;-73
2021/01/26 07:47:48;;;;;;;9.28;4.55;;;;;;;11.55;57.49;97828.89;1833906;77;21349;-71
2021/01/26 07:50:35;;;;;;;6.60;4.58;;;;;;;11.59;57.43;97827.94;1849991;77;21152;-72
2021/01/26 07:53:20;;;;;;;8.30;4.92;;;;;;;11.63;57.42;97834.44;1842772;77;21142;-72
2021/01/26 07:55:58;;;;;;;7.92;4.53;;;;;;;11.76;57.19;97815.67;1818647;78;21115;-74
2021/01/26 07:58:25;;;;;;;8.00;5.33;;;;;;;11.91;56.76;97835.78;1826644;78;21576;-73
2021/01/26 08:00:59;;;;;;;7.12;4.33;;;;;;;11.91;56.68;97834.45;1825730;78;21375;-73
2021/01/26 08:03:27;;;;;;;;;;;;;;;11.92;56.74;97831.57;1831367;77;21190;-74
2021/01/26 08:05:57;;;;;;;6.17;4.55;;;;;;;11.95;56.65;97852.92;1813737;78;20294;-74
2021/01/26 08:08:29;;;;;;;7.15;5.15;;;;;;;11.88;56.81;97845.00;1801450;78;21162;-74
2021/01/26 08:11:21;;;;;;;8.38;5.28;;;;;;;11.91;56.78;97824.61;1812891;78;21142;-75
2021/01/26 08:14:06;;;;;;;7.45;5.33;;;;;;;11.93;56.68;97841.16;1808808;78;21371;-72
2021/01/26 08:16:47;;;;;;;7.20;5.53;;;;;;;11.92;56.48;97844.87;1802121;77;21634;-74
2021/01/26 08:19:31;;;;;;;7.22;5.15;;;;;;;11.98;56.26;97852.48;1812789;78;21182;-73
2021/01/26 08:21:59;;;;;;;7.72;4.70;;;;;;;11.99;56.07;97863.41;1822416;77;21197;-71
2021/01/26 08:24:31;;;;;;;7.50;5.00;;;;;;;12.00;55.95;97842.42;1808431;78;21164;-71
2021/01/26 08:27:26;;;;;;;6.92;4.47;;;;;;;12.02;55.90;97878.14;1803811;78;22290;-71
2021/01/26 08:30:00;;;;;;;7.05;4.55;;;;;;;12.03;55.96;97900.52;1778069;78;22041;-75
2021/01/26 08:32:36;;;;;;;7.83;5.60;;;;;;;12.03;55.95;97896.52;1826190;77;21195;-75
2021/01/26 08:35:26;;;;;;;7.47;4.92;;;;;;;12.04;56.03;97908.81;1854377;77;21134;-75
2021/01/26 08:37:53;;;;;;;6.60;5.65;;;;;;;12.06;56.01;97875.32;1772934;78;21150;-74
2021/01/26 08:40:28;;;;;;;8.58;5.72;;;;;;;12.06;55.62;97896.61;1826566;78;21728;-72
2021/01/26 08:43:05;;;;;;;8.25;4.50;;;;;;;12.07;55.47;97887.58;1803891;78;21186;-72
2021/01/26 08:45:39;;;;;;;6.83;4.22;;;;;;;12.09;55.16;97881.51;1825908;78;21178;-74
2021/01/26 08:48:09;;;;;;;6.40;3.72;;;;;;;12.10;54.83;97911.91;1806257;78;21151;-72
2021/01/26 08:50:46;;;;;;;9.48;4.30;;;;;;;12.11;54.70;97920.69;1786525;78;21563;-73
2021/01/26 08:53:34;;;;;;;6.35;3.67;;;;;;;12.12;54.67;97915.16;1817172;77;21324;-71
2021/01/26 08:56:28;;;;;;;6.37;4.00;;;;;;;12.13;54.54;97903.48;1809746;78;21597;-71
2021/01/26 08:58:57;;;;;;;6.42;3.67;;;;;;;12.14;54.36;97922.40;1820003;78;21107;-73
2021/01/26 09:01:36;;;;;;;6.65;4.22;;;;;;;12.14;54.38;97914.41;1810368;78;21152;-71
2021/01/26 09:04:16;;;;;;;5.85;3.67;;;;;;;12.15;54.42;97933.88;1809481;78;21178;-71
2021/01/26 09:06:45;;;;;;;6.03;3.87;;;;;;;12.17;54.45;97927.29;1805357;78;22140;-70
2021/01/26 09:09:33;;;;;;;5.03;3.75;;;;;;;12.17;54.26;97939.27;1830404;78;21186;-71
2021/01/26 09:12:03;;;;;;;4.90;3.70;;;;;;;12.19;54.09;97959.02;1829010;78;21173;-73
2021/01/26 09:14:41;;;;;;;6.33;3.85;;;;;;;12.20;54.06;97954.78;1853148;77;21635;-75
2021/01/26 09:17:28;;;;;;;7.08;3.42;;;;;;;12.21;54.10;97966.27;1802759;79;21147;-73
2021/01/26 09:20:05;;;;;;;4.62;3.58;;;;;;;12.22;54.16;97956.42;1821774;77;21404;-72
2021/01/26 09:22:33;;;;;;;6.78;4.70;;;;;;;12.23;54.08;97932.73;1819698;77;21128;-72
2021/01/26 09:25:23;;;;;;;4.55;3.77;;;;;;;12.24;54.07;97988.42;1830052;77;21155;-72
2021/01/26 09:28:08;;;;;;;4.87;3.80;;;;;;;12.26;53.96;97989.02;1837712;77;21135;-72
2021/01/26 09:30:40;;;;;;;4.08;3.12;;;;;;;12.26;53.84;97997.53;1844112;77;21083;-70
2021/01/26 09:36:08;;;;;;;5.03;3.62;;;;;;;12.29;53.89;98001.91;1828079;76;28198;-74
2021/01/26 09:38:48;;;;;;;4.62;3.17;;;;;;;12.25;53.95;98021.21;1796593;78;22083;-71
2021/01/26 09:41:23;;;;;;;5.10;3.17;;;;;;;12.27;53.86;98008.49;1781955;79;21647;-70
2021/01/26 09:44:07;;;;;;;5.65;3.85;;;;;;;12.26;53.84;97969.05;1783987;79;21135;-73
2021/01/26 09:46:40;;;;;;;6.95;3.08;;;;;;;12.29;53.91;98012.55;1792295;77;21219;-74
2021/01/26 09:49:17;;;;;;;10.28;3.40;;;;;;;12.31;53.93;98015.80;1800769;78;21115;-74
2021/01/26 09:52:10;;;;;;;5.17;3.45;;;;;;;12.32;53.87;98019.27;1760224;78;21170;-74
2021/01/26 09:54:40;;;;;;;4.05;3.35;;;;;;;12.33;53.86;98028.91;1801477;78;26333;-75
2021/01/26 09:57:10;;;;;;;4.83;3.20;;;;;;;12.32;53.94;97997.48;1775531;78;21198;-74
2021/01/26 09:59:39;;;;;;;4.25;3.47;;;;;;;12.33;53.93;98031.04;1789905;78;20972;-75
2021/01/26 10:02:09;;;;;;;5.37;3.45;;;;;;;12.34;53.96;98023.86;1793494;79;21190;-74
2021/01/26 10:04:38;;;;;;;5.15;3.22;;;;;;;12.36;53.94;98035.94;1784749;78;21627;-75
2021/01/26 10:07:11;;;;;;;5.62;3.25;;;;;;;12.37;53.92;98003.45;1773645;79;21203;-77
2021/01/26 10:09:40;;;;;;;4.05;3.47;;;;;;;12.38;53.74;98032.53;1770522;79;21158;-72
2021/01/26 10:12:27;;;;;;;4.05;3.42;;;;;;;12.41;53.63;98020.61;1796286;78;21138;-74
2021/01/26 10:15:21;;;;;;;3.70;3.33;;;;;;;12.41;53.35;98043.25;1798127;77;21207;-72
2021/01/26 10:18:01;;;;;;;5.55;3.60;;;;;;;12.42;53.22;98056.04;1745010;81;21085;-73
2021/01/26 10:20:35;;;;;;;3.37;2.60;;;;;;;12.41;53.09;98047.24;1747407;81;23023;-72
2021/01/26 10:23:09;;;;;;;4.15;3.10;;;;;;;12.41;53.14;98039.78;1773348;79;21649;-73
2021/01/26 10:25:38;;;;;;;5.62;3.52;;;;;;;12.41;53.09;98049.09;1740361;81;21183;-74
2021/01/26 10:28:16;;;;;;;3.40;3.00;;;;;;;12.41;53.13;98031.27;1786531;79;21547;-73
2021/01/26 10:30:45;;;;;;;4.90;3.40;;;;;;;12.42;53.13;98015.59;1783621;79;21193;-74
2021/01/26 10:33:38;;;;;;;4.95;3.75;;;;;;;12.44;53.05;98036.66;1775321;79;21361;-72
2021/01/26 10:36:32;;;;;;;5.58;2.92;;;;;;;12.43;53.00;98057.68;1770451;78;21241;-74
2021/01/26 10:39:05;;;;;;;7.05;3.90;;;;;;;12.43;52.94;98078.46;1781574;78;21169;-73
2021/01/26 10:41:33;;;;;;;7.42;3.33;;;;;;;12.42;52.89;98085.33;1776374;78;21649;-73
2021/01/26 10:44:14;;;;;;;7.65;4.35;;;;;;;12.41;52.79;98105.83;1808805;78;21166;-73
2021/01/26 10:46:49;;;;;;;5.92;3.37;;;;;;;12.41;52.78;98093.04;1813330;78;21387;-74
2021/01/26 10:49:35;;;;;;;6.20;3.70;;;;;;;12.42;52.60;98046.22;1799337;78;21558;-78
2021/01/26 10:52:05;;;;;;;6.92;3.95;;;;;;;12.43;52.45;98112.27;1797519;78;21614;-75
2021/01/26 10:54:36;;;;;;;7.90;3.67;;;;;;;12.43;52.42;98117.60;1787900;78;21189;-74
2021/01/26 10:57:04;;;;;;;7.15;3.70;;;;;;;12.43;52.52;98121.59;1795351;78;21287;-77
2021/01/26 10:59:31;;;;;;;5.53;3.33;;;;;;;12.44;52.58;98060.62;1773325;80;21476;-75
2021/01/26 11:01:59;;;;;;;4.12;3.05;;;;;;;12.46;52.38;98110.48;1790302;78;21137;-74
2021/01/26 11:04:27;;;;;;;4.90;3.00;;;;;;;12.45;52.27;98126.19;1790070;78;21201;-74
2021/01/26 11:06:55;;;;;;;4.50;3.55;;;;;;;12.45;52.27;98095.03;1798910;78;21086;-73
2021/01/26 11:09:23;;;;;;;4.40;3.12;;;;;;;12.47;52.16;98104.95;1788599;78;21115;-79
2021/01/26 11:11:50;;;;;;;6.33;3.52;;;;;;;12.47;52.09;98132.91;1792269;78;23540;-79
2021/01/26 11:14:19;;;;;;;6.12;3.40;;;;;;;12.48;52.08;98136.41;1803197;78;21630;-78
2021/01/26 11:16:46;;;;;;;4.12;3.10;;;;;;;12.49;52.00;98106.06;1804797;78;21433;-75
2021/01/26 11:19:16;;;;;;;6.20;3.47;;;;;;;12.50;51.98;98134.34;1795522;78;21166;-73
2021/01/26 11:21:43;;;;;;;5.85;3.90;;;;;;;12.50;51.94;98129.02;1801236;78;21589;-75
2021/01/26 11:24:10;;;;;;;5.60;3.08;;;;;;;12.50;51.97;98147.13;1787654;78;21794;-72
2021/01/26 11:26:39;;;;;;;4.00;2.77;;;;;;;12.51;51.96;98126.63;1788717;78;21146;-74
2021/01/26 11:29:06;;;;;;;4.62;3.20;;;;;;;12.51;52.03;98139.42;1804788;78;21140;-75
2021/01/26 11:31:33;;;;;;;3.87;3.15;;;;;;;12.53;52.04;98137.88;1796273;78;21122;-73
2021/01/26 11:34:02;;;;;;;4.12;3.05;;;;;;;12.53;52.00;98142.68;1802592;78;21141;-73
2021/01/26 11:36:30;;;;;;;4.22;3.30;;;;;;;12.53;51.95;98148.01;1787714;79;22277;-74
2021/01/26 11:38:58;;;;;;;4.30;3.15;;;;;;;12.54;51.89;98147.52;1795633;79;21606;-77
2021/01/26 11:41:25;;;;;;;5.83;3.90;;;;;;;12.55;51.83;98165.91;1786488;79;21095;-74
2021/01/26 11:43:52;;;;;;;3.50;3.20;;;;;;;12.56;51.72;98164.09;1772392;79;21203;-75
2021/01/26 11:46:20;;;;;;;4.60;3.50;;;;;;;12.56;51.73;98162.23;1773612;79;21134;-74
2021/01/26 11:48:47;;;;;;;6.03;3.60;;;;;;;12.57;51.72;98168.37;1786101;79;22156;-77
2021/01/26 11:51:14;;;;;;;4.00;3.25;;;;;;;12.57;51.70;98153.72;1795943;79;21635;-67
2021/01/26 11:53:41;;;;;;;4.47;2.75;;;;;;;12.58;51.64;98279.23;1776418;79;21638;-68
2021/01/26 11:56:09;;;;;;;3.50;2.62;;;;;;;12.58;51.86;98255.25;1790536;79;21167;-68
2021/01/26 11:58:36;;;;;;;5.42;3.58;;;;;;;12.58;51.85;98255.25;1796677;79;21143;-68
2021/01/26 12:01:06;;;;;;;4.78;3.30;;;;;;;12.55;51.82;98253.02;1790428;79;21383;-72
2021/01/26 12:03:33;;;;;;;3.77;3.10;;;;;;;12.51;51.81;98263.28;1785229;79;21138;-72
2021/01/26 12:06:04;;;;;;;3.70;2.85;;;;;;;12.48;51.78;98262.92;1785764;79;21551;-72
2021/01/26 12:08:31;;;;;;;6.72;3.20;;;;;;;12.44;51.80;98259.03;1780116;79;21162;-71
2021/01/26 12:11:01;;;;;;;4.35;3.45;;;;;;;12.42;51.76;98266.42;1778840;79;21656;-72
2021/01/26 12:13:28;;;;;;;4.90;3.27;;;;;;;12.37;51.77;98263.90;1772331;79;21624;-71
2021/01/26 12:15:56;;;;;;;4.35;3.52;;;;;;;12.35;51.75;98275.28;1746918;81;21127;-68
2021/01/26 12:18:23;;;;;;;4.25;3.05;;;;;;;12.33;51.74;98275.20;1738693;80;21170;-69
2021/01/26 12:20:52;;;;;;;6.25;3.40;;;;;;;12.29;51.70;98265.50;1744215;80;21170;-70
2021/01/26 12:23:19;;;;;;;4.22;3.35;;;;;;;12.27;51.71;98290.72;1745757;81;21128;-69
2021/01/26 12:25:47;;;;;;;4.50;3.37;;;;;;;12.24;51.74;98294.61;1752451;80;21388;-69